sensor_id;sensor_type;location;lat;lon;timestamp;P1;durP1;ratioP1;P2;durP2;ratioP2
33740;SDS011;20065;48.380;10.892;2023-05-18T00:01:41;17.90;;;8.80;;
33740;SDS011;20065;48.380;10.892;2023-05-18T00:04:27;16.58;;;8.45;;
33740;SDS011;20065;48.380;10.892;2023-05-18T00:07:14;16.10;;;8.38;;
33740;SDS011;20065;48.380;10.892;2023-05-18T00:10:03;13.80;;;7.15;;
33740;SDS011;20065;48.380;10.892;2023-05-18T00:12:50;14.25;;;7.53;;
33740;SDS011;20065;48.380;10.892;2023-05-18T00:15:36;15.00;;;7.82;;
33740;SDS011;20065;48.380;10.892;2023-05-18T00:18:23;17.10;;;8.55;;
33740;SDS011;20065;48.380;10.892;2023-05-18T00:21:10;14.70;;;7.88;;
33740;SDS011;20065;48.380;10.892;2023-05-18T00:23:57;16.10;;;7.40;;
33740;SDS011;20065;48.380;10.892;2023-05-18T00:26:45;15.13;;;7.70;;
33740;SDS011;20065;48.380;10.892;2023-05-18T00:29:31;16.85;;;8.68;;
33740;SDS011;20065;48.380;10.892;2023-05-18T00:32:18;11.95;;;7.65;;
33740;SDS011;20065;48.380;10.892;2023-05-18T00:35:04;15.25;;;7.70;;
33740;SDS011;20065;48.380;10.892;2023-05-18T00:37:51;16.67;;;9.13;;
33740;SDS011;20065;48.380;10.892;2023-05-18T00:40:40;15.55;;;7.88;;
33740;SDS011;20065;48.380;10.892;2023-05-18T00:43:27;15.52;;;7.75;;
33740;SDS011;20065;48.380;10.892;2023-05-18T00:46:13;16.63;;;7.68;;
33740;SDS011;20065;48.380;10.892;2023-05-18T00:48:59;15.20;;;8.23;;
33740;SDS011;20065;48.380;10.892;2023-05-18T00:51:48;11.38;;;7.22;;
33740;SDS011;20065;48.380;10.892;2023-05-18T00:54:34;12.02;;;6.93;;
33740;SDS011;20065;48.380;10.892;2023-05-18T00:57:21;14.75;;;7.57;;
33740;SDS011;20065;48.380;10.892;2023-05-18T01:00:10;13.23;;;7.60;;
33740;SDS011;20065;48.380;10.892;2023-05-18T01:02:58;17.83;;;8.20;;
33740;SDS011;20065;48.380;10.892;2023-05-18T01:05:44;15.00;;;7.20;;
33740;SDS011;20065;48.380;10.892;2023-05-18T01:08:34;12.88;;;7.00;;
33740;SDS011;20065;48.380;10.892;2023-05-18T01:14:53;11.20;;;7.22;;
33740;SDS011;20065;48.380;10.892;2023-05-18T01:21:11;19.25;;;6.40;;
33740;SDS011;20065;48.380;10.892;2023-05-18T01:24:25;12.30;;;7.63;;
33740;SDS011;20065;48.380;10.892;2023-05-18T01:27:20;17.15;;;6.25;;
33740;SDS011;20065;48.380;10.892;2023-05-18T01:30:09;12.48;;;6.25;;
33740;SDS011;20065;48.380;10.892;2023-05-18T01:32:58;12.07;;;6.05;;
33740;SDS011;20065;48.380;10.892;2023-05-18T01:35:47;15.77;;;6.68;;
33740;SDS011;20065;48.380;10.892;2023-05-18T01:38:33;13.85;;;6.47;;
33740;SDS011;20065;48.380;10.892;2023-05-18T01:41:30;10.20;;;5.90;;
33740;SDS011;20065;48.380;10.892;2023-05-18T01:47:19;15.05;;;6.13;;
33740;SDS011;20065;48.380;10.892;2023-05-18T01:50:09;9.70;;;5.15;;
33740;SDS011;20065;48.380;10.892;2023-05-18T01:53:05;8.85;;;5.43;;
33740;SDS011;20065;48.380;10.892;2023-05-18T01:55:54;12.27;;;5.78;;
33740;SDS011;20065;48.380;10.892;2023-05-18T01:58:41;14.32;;;6.40;;
33740;SDS011;20065;48.380;10.892;2023-05-18T02:01:28;12.95;;;6.18;;
33740;SDS011;20065;48.380;10.892;2023-05-18T02:04:15;11.95;;;5.47;;
33740;SDS011;20065;48.380;10.892;2023-05-18T02:07:01;11.23;;;5.50;;
33740;SDS011;20065;48.380;10.892;2023-05-18T02:09:49;10.52;;;5.05;;
33740;SDS011;20065;48.380;10.892;2023-05-18T02:12:35;9.70;;;5.15;;
33740;SDS011;20065;48.380;10.892;2023-05-18T02:15:21;11.05;;;5.53;;
33740;SDS011;20065;48.380;10.892;2023-05-18T02:18:08;14.05;;;5.65;;
33740;SDS011;20065;48.380;10.892;2023-05-18T02:20:57;14.30;;;6.00;;
33740;SDS011;20065;48.380;10.892;2023-05-18T02:23:44;15.60;;;5.53;;
33740;SDS011;20065;48.380;10.892;2023-05-18T02:26:33;11.95;;;5.32;;
33740;SDS011;20065;48.380;10.892;2023-05-18T02:29:19;11.73;;;5.72;;
33740;SDS011;20065;48.380;10.892;2023-05-18T02:32:05;14.70;;;5.78;;
33740;SDS011;20065;48.380;10.892;2023-05-18T02:34:52;15.20;;;6.38;;
33740;SDS011;20065;48.380;10.892;2023-05-18T02:37:39;12.48;;;5.30;;
33740;SDS011;20065;48.380;10.892;2023-05-18T02:40:28;15.88;;;5.47;;
33740;SDS011;20065;48.380;10.892;2023-05-18T02:43:15;13.45;;;6.18;;
33740;SDS011;20065;48.380;10.892;2023-05-18T02:46:01;13.77;;;6.43;;
33740;SDS011;20065;48.380;10.892;2023-05-18T02:48:48;13.38;;;5.80;;
33740;SDS011;20065;48.380;10.892;2023-05-18T02:51:34;12.20;;;5.45;;
33740;SDS011;20065;48.380;10.892;2023-05-18T02:54:22;9.98;;;5.18;;
33740;SDS011;20065;48.380;10.892;2023-05-18T02:57:08;15.93;;;5.97;;
33740;SDS011;20065;48.380;10.892;2023-05-18T03:00:04;10.52;;;4.82;;
33740;SDS011;20065;48.380;10.892;2023-05-18T03:02:57;15.50;;;6.28;;
33740;SDS011;20065;48.380;10.892;2023-05-18T03:05:45;12.27;;;5.63;;
33740;SDS011;20065;48.380;10.892;2023-05-18T03:08:31;15.52;;;5.85;;
33740;SDS011;20065;48.380;10.892;2023-05-18T03:11:18;13.10;;;5.78;;
33740;SDS011;20065;48.380;10.892;2023-05-18T03:14:06;13.13;;;6.28;;
33740;SDS011;20065;48.380;10.892;2023-05-18T03:16:52;11.20;;;5.80;;
33740;SDS011;20065;48.380;10.892;2023-05-18T03:19:39;17.00;;;6.65;;
33740;SDS011;20065;48.380;10.892;2023-05-18T03:22:26;16.27;;;6.05;;
33740;SDS011;20065;48.380;10.892;2023-05-18T03:25:12;15.43;;;6.10;;
33740;SDS011;20065;48.380;10.892;2023-05-18T03:27:59;18.50;;;6.05;;
33740;SDS011;20065;48.380;10.892;2023-05-18T03:30:47;11.32;;;5.80;;
33740;SDS011;20065;48.380;10.892;2023-05-18T03:33:33;13.25;;;5.85;;
33740;SDS011;20065;48.380;10.892;2023-05-18T03:36:19;11.90;;;5.90;;
33740;SDS011;20065;48.380;10.892;2023-05-18T03:39:07;9.05;;;5.65;;
33740;SDS011;20065;48.380;10.892;2023-05-18T03:41:54;17.63;;;6.40;;
33740;SDS011;20065;48.380;10.892;2023-05-18T03:44:41;13.20;;;5.80;;
33740;SDS011;20065;48.380;10.892;2023-05-18T03:47:27;13.10;;;6.22;;
33740;SDS011;20065;48.380;10.892;2023-05-18T03:50:14;12.82;;;5.88;;
33740;SDS011;20065;48.380;10.892;2023-05-18T03:53:01;11.63;;;5.45;;
33740;SDS011;20065;48.380;10.892;2023-05-18T03:55:47;11.68;;;5.30;;
33740;SDS011;20065;48.380;10.892;2023-05-18T03:58:33;11.75;;;5.82;;
33740;SDS011;20065;48.380;10.892;2023-05-18T04:01:20;12.63;;;7.28;;
33740;SDS011;20065;48.380;10.892;2023-05-18T04:04:09;12.10;;;6.90;;
33740;SDS011;20065;48.380;10.892;2023-05-18T04:07:02;13.75;;;6.95;;
33740;SDS011;20065;48.380;10.892;2023-05-18T04:09:50;11.43;;;7.35;;
33740;SDS011;20065;48.380;10.892;2023-05-18T04:12:38;14.27;;;6.68;;
33740;SDS011;20065;48.380;10.892;2023-05-18T04:15:25;13.15;;;5.97;;
33740;SDS011;20065;48.380;10.892;2023-05-18T04:18:12;14.05;;;7.20;;
33740;SDS011;20065;48.380;10.892;2023-05-18T04:21:00;14.30;;;7.63;;
33740;SDS011;20065;48.380;10.892;2023-05-18T04:23:47;10.50;;;5.38;;
33740;SDS011;20065;48.380;10.892;2023-05-18T04:26:33;14.52;;;6.03;;
33740;SDS011;20065;48.380;10.892;2023-05-18T04:29:21;10.95;;;5.45;;
33740;SDS011;20065;48.380;10.892;2023-05-18T04:32:07;10.73;;;5.40;;
33740;SDS011;20065;48.380;10.892;2023-05-18T04:34:55;13.23;;;5.70;;
33740;SDS011;20065;48.380;10.892;2023-05-18T04:37:43;10.23;;;5.57;;
33740;SDS011;20065;48.380;10.892;2023-05-18T04:40:39;19.17;;;5.93;;
33740;SDS011;20065;48.380;10.892;2023-05-18T04:43:27;15.98;;;5.75;;
33740;SDS011;20065;48.380;10.892;2023-05-18T04:46:13;11.60;;;4.93;;
33740;SDS011;20065;48.380;10.892;2023-05-18T04:49:01;9.10;;;5.15;;
33740;SDS011;20065;48.380;10.892;2023-05-18T04:51:52;9.68;;;4.93;;
33740;SDS011;20065;48.380;10.892;2023-05-18T04:54:43;17.02;;;5.80;;
33740;SDS011;20065;48.380;10.892;2023-05-18T04:57:29;14.88;;;5.93;;
33740;SDS011;20065;48.380;10.892;2023-05-18T05:00:16;10.50;;;5.10;;
33740;SDS011;20065;48.380;10.892;2023-05-18T05:03:02;17.77;;;6.00;;
33740;SDS011;20065;48.380;10.892;2023-05-18T05:05:48;9.18;;;5.22;;
33740;SDS011;20065;48.380;10.892;2023-05-18T05:08:35;11.32;;;5.45;;
33740;SDS011;20065;48.380;10.892;2023-05-18T05:11:22;11.20;;;5.80;;
33740;SDS011;20065;48.380;10.892;2023-05-18T05:14:08;13.57;;;5.57;;
33740;SDS011;20065;48.380;10.892;2023-05-18T05:16:55;10.68;;;4.35;;
33740;SDS011;20065;48.380;10.892;2023-05-18T05:19:41;15.63;;;5.50;;
33740;SDS011;20065;48.380;10.892;2023-05-18T05:22:28;16.35;;;5.43;;
33740;SDS011;20065;48.380;10.892;2023-05-18T05:25:14;10.63;;;5.80;;
33740;SDS011;20065;48.380;10.892;2023-05-18T05:28:00;15.50;;;5.68;;
33740;SDS011;20065;48.380;10.892;2023-05-18T05:30:47;8.85;;;4.90;;
33740;SDS011;20065;48.380;10.892;2023-05-18T05:33:33;12.05;;;5.05;;
33740;SDS011;20065;48.380;10.892;2023-05-18T05:36:20;9.37;;;5.30;;
33740;SDS011;20065;48.380;10.892;2023-05-18T05:39:06;10.98;;;5.35;;
33740;SDS011;20065;48.380;10.892;2023-05-18T05:41:53;10.77;;;6.28;;
33740;SDS011;20065;48.380;10.892;2023-05-18T05:44:39;13.93;;;5.83;;
33740;SDS011;20065;48.380;10.892;2023-05-18T05:47:25;11.25;;;5.40;;
33740;SDS011;20065;48.380;10.892;2023-05-18T05:50:12;12.27;;;5.65;;
33740;SDS011;20065;48.380;10.892;2023-05-18T05:52:58;13.25;;;5.63;;
33740;SDS011;20065;48.380;10.892;2023-05-18T05:55:45;8.38;;;4.82;;
33740;SDS011;20065;48.380;10.892;2023-05-18T05:58:34;12.15;;;5.72;;
33740;SDS011;20065;48.380;10.892;2023-05-18T06:01:20;11.07;;;5.45;;
33740;SDS011;20065;48.380;10.892;2023-05-18T06:04:07;10.23;;;5.38;;
33740;SDS011;20065;48.380;10.892;2023-05-18T06:06:57;8.53;;;4.63;;
33740;SDS011;20065;48.380;10.892;2023-05-18T06:09:43;8.57;;;4.63;;
33740;SDS011;20065;48.380;10.892;2023-05-18T06:12:30;9.10;;;5.13;;
33740;SDS011;20065;48.380;10.892;2023-05-18T06:15:17;11.38;;;5.47;;
33740;SDS011;20065;48.380;10.892;2023-05-18T06:18:04;10.32;;;4.43;;
33740;SDS011;20065;48.380;10.892;2023-05-18T06:20:50;9.20;;;4.53;;
33740;SDS011;20065;48.380;10.892;2023-05-18T06:23:39;12.00;;;4.50;;
33740;SDS011;20065;48.380;10.892;2023-05-18T06:26:43;7.60;;;4.20;;
33740;SDS011;20065;48.380;10.892;2023-05-18T06:29:47;9.97;;;4.70;;
33740;SDS011;20065;48.380;10.892;2023-05-18T06:32:53;11.73;;;4.60;;
33740;SDS011;20065;48.380;10.892;2023-05-18T06:35:39;8.40;;;4.63;;
33740;SDS011;20065;48.380;10.892;2023-05-18T06:38:26;8.00;;;4.90;;
33740;SDS011;20065;48.380;10.892;2023-05-18T06:41:12;9.17;;;5.83;;
33740;SDS011;20065;48.380;10.892;2023-05-18T06:43:59;11.00;;;4.70;;
33740;SDS011;20065;48.380;10.892;2023-05-18T06:46:55;11.10;;;4.70;;
33740;SDS011;20065;48.380;10.892;2023-05-18T06:49:47;8.20;;;4.60;;
33740;SDS011;20065;48.380;10.892;2023-05-18T06:52:34;9.77;;;4.60;;
33740;SDS011;20065;48.380;10.892;2023-05-18T06:55:20;11.30;;;4.73;;
33740;SDS011;20065;48.380;10.892;2023-05-18T06:58:06;10.00;;;4.53;;
33740;SDS011;20065;48.380;10.892;2023-05-18T07:00:53;11.03;;;6.03;;
33740;SDS011;20065;48.380;10.892;2023-05-18T07:03:39;10.30;;;4.60;;
33740;SDS011;20065;48.380;10.892;2023-05-18T07:06:25;7.53;;;4.37;;
33740;SDS011;20065;48.380;10.892;2023-05-18T07:09:12;7.40;;;4.67;;
33740;SDS011;20065;48.380;10.892;2023-05-18T07:11:58;9.50;;;5.00;;
33740;SDS011;20065;48.380;10.892;2023-05-18T07:14:44;13.43;;;5.00;;
33740;SDS011;20065;48.380;10.892;2023-05-18T07:17:30;11.20;;;5.33;;
33740;SDS011;20065;48.380;10.892;2023-05-18T07:20:16;9.27;;;4.60;;
33740;SDS011;20065;48.380;10.892;2023-05-18T07:23:02;10.60;;;5.00;;
33740;SDS011;20065;48.380;10.892;2023-05-18T07:25:49;9.43;;;4.90;;
33740;SDS011;20065;48.380;10.892;2023-05-18T07:28:36;9.23;;;5.07;;
33740;SDS011;20065;48.380;10.892;2023-05-18T07:31:23;8.23;;;5.00;;
33740;SDS011;20065;48.380;10.892;2023-05-18T07:34:09;12.97;;;5.50;;
33740;SDS011;20065;48.380;10.892;2023-05-18T07:36:55;9.93;;;4.70;;
33740;SDS011;20065;48.380;10.892;2023-05-18T07:39:50;9.70;;;5.17;;
33740;SDS011;20065;48.380;10.892;2023-05-18T07:42:37;10.93;;;5.00;;
33740;SDS011;20065;48.380;10.892;2023-05-18T07:45:25;13.20;;;5.13;;
33740;SDS011;20065;48.380;10.892;2023-05-18T07:48:11;11.43;;;5.13;;
33740;SDS011;20065;48.380;10.892;2023-05-18T07:50:57;9.13;;;4.70;;
33740;SDS011;20065;48.380;10.892;2023-05-18T07:53:44;8.30;;;4.87;;
33740;SDS011;20065;48.380;10.892;2023-05-18T07:56:30;9.60;;;4.80;;
33740;SDS011;20065;48.380;10.892;2023-05-18T07:59:17;12.37;;;5.10;;
33740;SDS011;20065;48.380;10.892;2023-05-18T08:02:03;10.73;;;5.10;;
33740;SDS011;20065;48.380;10.892;2023-05-18T08:04:49;9.47;;;4.73;;
33740;SDS011;20065;48.380;10.892;2023-05-18T08:07:36;9.50;;;4.40;;
33740;SDS011;20065;48.380;10.892;2023-05-18T08:10:22;10.90;;;4.43;;
33740;SDS011;20065;48.380;10.892;2023-05-18T08:13:09;10.07;;;4.30;;
33740;SDS011;20065;48.380;10.892;2023-05-18T08:15:55;8.77;;;3.90;;
33740;SDS011;20065;48.380;10.892;2023-05-18T08:18:41;14.37;;;4.83;;
33740;SDS011;20065;48.380;10.892;2023-05-18T08:21:28;7.57;;;3.70;;
33740;SDS011;20065;48.380;10.892;2023-05-18T08:24:14;15.50;;;5.40;;
33740;SDS011;20065;48.380;10.892;2023-05-18T08:27:00;10.20;;;4.10;;
33740;SDS011;20065;48.380;10.892;2023-05-18T08:29:48;13.27;;;4.23;;
33740;SDS011;20065;48.380;10.892;2023-05-18T08:32:34;7.83;;;3.20;;
33740;SDS011;20065;48.380;10.892;2023-05-18T08:35:24;6.60;;;3.73;;
33740;SDS011;20065;48.380;10.892;2023-05-18T08:38:10;12.67;;;4.00;;
33740;SDS011;20065;48.380;10.892;2023-05-18T08:43:53;9.73;;;3.80;;
33740;SDS011;20065;48.380;10.892;2023-05-18T08:46:49;9.90;;;3.40;;
33740;SDS011;20065;48.380;10.892;2023-05-18T08:49:36;6.90;;;3.70;;
33740;SDS011;20065;48.380;10.892;2023-05-18T08:52:24;12.43;;;3.70;;
33740;SDS011;20065;48.380;10.892;2023-05-18T08:55:12;14.13;;;4.20;;
33740;SDS011;20065;48.380;10.892;2023-05-18T08:58:02;15.93;;;3.87;;
33740;SDS011;20065;48.380;10.892;2023-05-18T09:00:51;11.97;;;3.23;;
33740;SDS011;20065;48.380;10.892;2023-05-18T09:03:38;14.40;;;3.50;;
33740;SDS011;20065;48.380;10.892;2023-05-18T09:06:26;6.90;;;3.60;;
33740;SDS011;20065;48.380;10.892;2023-05-18T09:09:13;8.00;;;4.10;;
33740;SDS011;20065;48.380;10.892;2023-05-18T09:11:59;9.43;;;3.47;;
33740;SDS011;20065;48.380;10.892;2023-05-18T09:14:47;8.60;;;3.23;;
33740;SDS011;20065;48.380;10.892;2023-05-18T09:17:34;10.87;;;3.60;;
33740;SDS011;20065;48.380;10.892;2023-05-18T09:20:20;11.50;;;4.03;;
33740;SDS011;20065;48.380;10.892;2023-05-18T09:23:13;12.63;;;4.13;;
33740;SDS011;20065;48.380;10.892;2023-05-18T09:26:01;8.80;;;4.13;;
33740;SDS011;20065;48.380;10.892;2023-05-18T09:28:52;8.73;;;3.47;;
33740;SDS011;20065;48.380;10.892;2023-05-18T09:31:39;12.07;;;3.73;;
33740;SDS011;20065;48.380;10.892;2023-05-18T09:34:26;10.63;;;3.70;;
33740;SDS011;20065;48.380;10.892;2023-05-18T09:37:24;9.80;;;3.30;;
33740;SDS011;20065;48.380;10.892;2023-05-18T09:40:12;10.40;;;3.83;;
33740;SDS011;20065;48.380;10.892;2023-05-18T09:42:58;12.67;;;3.30;;
33740;SDS011;20065;48.380;10.892;2023-05-18T09:45:51;7.73;;;3.67;;
33740;SDS011;20065;48.380;10.892;2023-05-18T09:48:45;11.10;;;3.43;;
33740;SDS011;20065;48.380;10.892;2023-05-18T09:51:33;9.03;;;3.07;;
33740;SDS011;20065;48.380;10.892;2023-05-18T09:54:20;9.80;;;3.20;;
33740;SDS011;20065;48.380;10.892;2023-05-18T09:57:07;9.87;;;4.07;;
33740;SDS011;20065;48.380;10.892;2023-05-18T09:59:55;9.13;;;3.10;;
33740;SDS011;20065;48.380;10.892;2023-05-18T10:02:54;9.37;;;3.70;;
33740;SDS011;20065;48.380;10.892;2023-05-18T10:05:43;13.37;;;3.93;;
33740;SDS011;20065;48.380;10.892;2023-05-18T10:08:30;9.50;;;3.83;;
33740;SDS011;20065;48.380;10.892;2023-05-18T10:11:20;15.63;;;3.40;;
33740;SDS011;20065;48.380;10.892;2023-05-18T10:14:06;10.60;;;4.10;;
33740;SDS011;20065;48.380;10.892;2023-05-18T10:16:55;11.93;;;3.23;;
33740;SDS011;20065;48.380;10.892;2023-05-18T10:19:42;8.10;;;3.87;;
33740;SDS011;20065;48.380;10.892;2023-05-18T10:22:29;13.73;;;4.00;;
33740;SDS011;20065;48.380;10.892;2023-05-18T10:25:20;11.43;;;4.00;;
33740;SDS011;20065;48.380;10.892;2023-05-18T10:28:09;8.67;;;3.50;;
33740;SDS011;20065;48.380;10.892;2023-05-18T10:30:57;13.53;;;4.17;;
33740;SDS011;20065;48.380;10.892;2023-05-18T10:33:44;10.13;;;3.33;;
33740;SDS011;20065;48.380;10.892;2023-05-18T10:36:31;10.03;;;3.87;;
33740;SDS011;20065;48.380;10.892;2023-05-18T10:39:20;10.10;;;4.00;;
33740;SDS011;20065;48.380;10.892;2023-05-18T10:42:07;11.17;;;3.80;;
33740;SDS011;20065;48.380;10.892;2023-05-18T10:44:57;10.10;;;3.07;;
33740;SDS011;20065;48.380;10.892;2023-05-18T10:47:45;7.97;;;3.27;;
33740;SDS011;20065;48.380;10.892;2023-05-18T10:50:33;13.43;;;3.83;;
33740;SDS011;20065;48.380;10.892;2023-05-18T10:53:24;10.57;;;3.43;;
33740;SDS011;20065;48.380;10.892;2023-05-18T10:56:13;9.33;;;3.70;;
33740;SDS011;20065;48.380;10.892;2023-05-18T10:59:00;8.03;;;2.80;;
33740;SDS011;20065;48.380;10.892;2023-05-18T11:01:48;14.70;;;3.27;;
33740;SDS011;20065;48.380;10.892;2023-05-18T11:04:37;9.63;;;3.60;;
33740;SDS011;20065;48.380;10.892;2023-05-18T11:07:25;10.90;;;3.57;;
33740;SDS011;20065;48.380;10.892;2023-05-18T11:10:20;9.37;;;3.00;;
33740;SDS011;20065;48.380;10.892;2023-05-18T11:13:07;7.40;;;3.30;;
33740;SDS011;20065;48.380;10.892;2023-05-18T11:18:47;10.50;;;3.47;;
33740;SDS011;20065;48.380;10.892;2023-05-18T11:24:23;10.67;;;3.70;;
33740;SDS011;20065;48.380;10.892;2023-05-18T11:27:14;7.50;;;2.60;;
33740;SDS011;20065;48.380;10.892;2023-05-18T11:30:01;12.13;;;3.30;;
33740;SDS011;20065;48.380;10.892;2023-05-18T11:32:51;5.10;;;2.97;;
33740;SDS011;20065;48.380;10.892;2023-05-18T11:39:04;6.83;;;2.67;;
33740;SDS011;20065;48.380;10.892;2023-05-18T11:42:04;9.50;;;3.20;;
33740;SDS011;20065;48.380;10.892;2023-05-18T11:44:55;9.80;;;2.93;;
33740;SDS011;20065;48.380;10.892;2023-05-18T11:47:44;7.73;;;3.17;;
33740;SDS011;20065;48.380;10.892;2023-05-18T11:50:33;9.13;;;3.80;;
33740;SDS011;20065;48.380;10.892;2023-05-18T11:53:24;6.97;;;3.07;;
33740;SDS011;20065;48.380;10.892;2023-05-18T11:56:11;6.90;;;3.00;;
33740;SDS011;20065;48.380;10.892;2023-05-18T11:59:32;7.43;;;3.50;;
33740;SDS011;20065;48.380;10.892;2023-05-18T12:02:18;8.77;;;2.90;;
33740;SDS011;20065;48.380;10.892;2023-05-18T12:05:06;9.97;;;4.17;;
33740;SDS011;20065;48.380;10.892;2023-05-18T12:07:53;11.00;;;3.30;;
33740;SDS011;20065;48.380;10.892;2023-05-18T12:10:47;7.47;;;3.20;;
33740;SDS011;20065;48.380;10.892;2023-05-18T12:13:34;8.30;;;3.53;;
33740;SDS011;20065;48.380;10.892;2023-05-18T12:16:20;11.83;;;3.07;;
33740;SDS011;20065;48.380;10.892;2023-05-18T12:19:09;8.70;;;3.00;;
33740;SDS011;20065;48.380;10.892;2023-05-18T12:21:56;7.97;;;3.43;;
33740;SDS011;20065;48.380;10.892;2023-05-18T12:24:50;11.57;;;3.47;;
33740;SDS011;20065;48.380;10.892;2023-05-18T12:27:37;11.63;;;2.93;;
33740;SDS011;20065;48.380;10.892;2023-05-18T12:33:21;8.50;;;3.00;;
33740;SDS011;20065;48.380;10.892;2023-05-18T12:36:11;13.30;;;3.23;;
33740;SDS011;20065;48.380;10.892;2023-05-18T12:38:59;9.37;;;3.30;;
33740;SDS011;20065;48.380;10.892;2023-05-18T12:41:46;7.70;;;3.00;;
33740;SDS011;20065;48.380;10.892;2023-05-18T12:44:36;7.90;;;3.90;;
33740;SDS011;20065;48.380;10.892;2023-05-18T12:47:23;9.20;;;3.53;;
33740;SDS011;20065;48.380;10.892;2023-05-18T12:50:09;10.73;;;3.07;;
33740;SDS011;20065;48.380;10.892;2023-05-18T12:52:56;12.50;;;3.40;;
33740;SDS011;20065;48.380;10.892;2023-05-18T12:55:42;9.60;;;3.60;;
33740;SDS011;20065;48.380;10.892;2023-05-18T12:58:28;8.70;;;3.00;;
33740;SDS011;20065;48.380;10.892;2023-05-18T13:01:17;5.97;;;3.20;;
33740;SDS011;20065;48.380;10.892;2023-05-18T13:04:03;10.07;;;3.80;;
33740;SDS011;20065;48.380;10.892;2023-05-18T13:06:55;14.90;;;3.17;;
33740;SDS011;20065;48.380;10.892;2023-05-18T13:09:45;10.93;;;3.67;;
33740;SDS011;20065;48.380;10.892;2023-05-18T13:12:42;9.27;;;3.60;;
33740;SDS011;20065;48.380;10.892;2023-05-18T13:15:33;12.10;;;3.67;;
33740;SDS011;20065;48.380;10.892;2023-05-18T13:18:22;10.10;;;3.50;;
33740;SDS011;20065;48.380;10.892;2023-05-18T13:21:08;8.20;;;2.90;;
33740;SDS011;20065;48.380;10.892;2023-05-18T13:23:56;8.90;;;3.50;;
33740;SDS011;20065;48.380;10.892;2023-05-18T13:26:42;8.13;;;3.03;;
33740;SDS011;20065;48.380;10.892;2023-05-18T13:29:29;9.83;;;3.20;;
33740;SDS011;20065;48.380;10.892;2023-05-18T13:32:15;10.40;;;3.70;;
33740;SDS011;20065;48.380;10.892;2023-05-18T13:35:01;7.83;;;3.07;;
33740;SDS011;20065;48.380;10.892;2023-05-18T13:37:48;8.47;;;3.27;;
33740;SDS011;20065;48.380;10.892;2023-05-18T13:40:35;7.73;;;3.47;;
33740;SDS011;20065;48.380;10.892;2023-05-18T13:43:22;14.57;;;3.50;;
33740;SDS011;20065;48.380;10.892;2023-05-18T13:46:08;9.10;;;2.87;;
33740;SDS011;20065;48.380;10.892;2023-05-18T13:48:54;7.93;;;3.43;;
33740;SDS011;20065;48.380;10.892;2023-05-18T13:51:40;10.30;;;3.03;;
33740;SDS011;20065;48.380;10.892;2023-05-18T13:54:26;8.20;;;3.00;;
33740;SDS011;20065;48.380;10.892;2023-05-18T13:57:13;10.53;;;3.43;;
33740;SDS011;20065;48.380;10.892;2023-05-18T13:59:59;8.53;;;3.20;;
33740;SDS011;20065;48.380;10.892;2023-05-18T14:02:57;11.97;;;3.60;;
33740;SDS011;20065;48.380;10.892;2023-05-18T14:05:43;8.67;;;3.17;;
33740;SDS011;20065;48.380;10.892;2023-05-18T14:08:29;8.63;;;3.67;;
33740;SDS011;20065;48.380;10.892;2023-05-18T14:11:16;11.70;;;2.97;;
33740;SDS011;20065;48.380;10.892;2023-05-18T14:14:02;12.50;;;3.13;;
33740;SDS011;20065;48.380;10.892;2023-05-18T14:16:49;8.03;;;3.37;;
33740;SDS011;20065;48.380;10.892;2023-05-18T14:19:36;11.27;;;3.20;;
33740;SDS011;20065;48.380;10.892;2023-05-18T14:22:22;9.20;;;3.80;;
33740;SDS011;20065;48.380;10.892;2023-05-18T14:25:10;6.20;;;3.23;;
33740;SDS011;20065;48.380;10.892;2023-05-18T14:27:57;9.90;;;4.00;;
33740;SDS011;20065;48.380;10.892;2023-05-18T14:30:43;8.07;;;2.80;;
33740;SDS011;20065;48.380;10.892;2023-05-18T14:33:30;8.43;;;3.17;;
33740;SDS011;20065;48.380;10.892;2023-05-18T14:36:16;9.93;;;3.00;;
33740;SDS011;20065;48.380;10.892;2023-05-18T14:39:02;10.77;;;3.50;;
33740;SDS011;20065;48.380;10.892;2023-05-18T14:41:49;9.23;;;3.37;;
33740;SDS011;20065;48.380;10.892;2023-05-18T14:44:37;8.93;;;3.27;;
33740;SDS011;20065;48.380;10.892;2023-05-18T14:47:23;9.43;;;2.57;;
33740;SDS011;20065;48.380;10.892;2023-05-18T14:50:09;9.30;;;3.10;;
33740;SDS011;20065;48.380;10.892;2023-05-18T14:52:55;7.43;;;2.47;;
33740;SDS011;20065;48.380;10.892;2023-05-18T14:55:42;9.00;;;3.30;;
33740;SDS011;20065;48.380;10.892;2023-05-18T14:58:28;10.53;;;3.67;;
33740;SDS011;20065;48.380;10.892;2023-05-18T15:01:14;12.83;;;3.30;;
33740;SDS011;20065;48.380;10.892;2023-05-18T15:04:00;11.63;;;3.00;;
33740;SDS011;20065;48.380;10.892;2023-05-18T15:06:47;10.40;;;4.80;;
33740;SDS011;20065;48.380;10.892;2023-05-18T15:09:34;6.17;;;2.73;;
33740;SDS011;20065;48.380;10.892;2023-05-18T15:12:20;8.70;;;3.53;;
33740;SDS011;20065;48.380;10.892;2023-05-18T15:15:07;10.03;;;3.70;;
33740;SDS011;20065;48.380;10.892;2023-05-18T15:17:54;7.60;;;2.70;;
33740;SDS011;20065;48.380;10.892;2023-05-18T15:20:40;8.30;;;3.20;;
33740;SDS011;20065;48.380;10.892;2023-05-18T15:23:34;9.43;;;3.27;;
33740;SDS011;20065;48.380;10.892;2023-05-18T15:26:20;11.70;;;3.70;;
33740;SDS011;20065;48.380;10.892;2023-05-18T15:29:06;10.20;;;4.00;;
33740;SDS011;20065;48.380;10.892;2023-05-18T15:31:52;8.90;;;3.50;;
33740;SDS011;20065;48.380;10.892;2023-05-18T15:34:39;10.20;;;3.40;;
33740;SDS011;20065;48.380;10.892;2023-05-18T15:37:26;8.37;;;3.17;;
33740;SDS011;20065;48.380;10.892;2023-05-18T15:40:12;9.77;;;3.73;;
33740;SDS011;20065;48.380;10.892;2023-05-18T15:42:58;8.63;;;3.13;;
33740;SDS011;20065;48.380;10.892;2023-05-18T15:45:45;9.60;;;2.90;;
33740;SDS011;20065;48.380;10.892;2023-05-18T15:48:31;10.33;;;3.10;;
33740;SDS011;20065;48.380;10.892;2023-05-18T15:51:18;11.60;;;3.30;;
33740;SDS011;20065;48.380;10.892;2023-05-18T15:54:04;7.30;;;2.93;;
33740;SDS011;20065;48.380;10.892;2023-05-18T15:56:50;8.27;;;2.90;;
33740;SDS011;20065;48.380;10.892;2023-05-18T15:59:36;11.77;;;3.20;;
33740;SDS011;20065;48.380;10.892;2023-05-18T16:02:22;8.60;;;3.17;;
33740;SDS011;20065;48.380;10.892;2023-05-18T16:05:08;10.03;;;2.70;;
33740;SDS011;20065;48.380;10.892;2023-05-18T16:07:54;7.90;;;2.97;;
33740;SDS011;20065;48.380;10.892;2023-05-18T16:10:41;6.80;;;3.33;;
33740;SDS011;20065;48.380;10.892;2023-05-18T16:13:27;8.97;;;3.37;;
33740;SDS011;20065;48.380;10.892;2023-05-18T16:16:15;8.80;;;2.93;;
33740;SDS011;20065;48.380;10.892;2023-05-18T16:19:01;14.10;;;3.33;;
33740;SDS011;20065;48.380;10.892;2023-05-18T16:21:48;10.43;;;3.73;;
33740;SDS011;20065;48.380;10.892;2023-05-18T16:24:34;10.23;;;3.17;;
33740;SDS011;20065;48.380;10.892;2023-05-18T16:27:20;9.17;;;3.17;;
33740;SDS011;20065;48.380;10.892;2023-05-18T16:30:06;7.80;;;2.90;;
33740;SDS011;20065;48.380;10.892;2023-05-18T16:32:53;7.50;;;2.60;;
33740;SDS011;20065;48.380;10.892;2023-05-18T16:35:39;8.10;;;2.20;;
33740;SDS011;20065;48.380;10.892;2023-05-18T16:38:26;6.33;;;2.50;;
33740;SDS011;20065;48.380;10.892;2023-05-18T16:41:12;10.33;;;2.70;;
33740;SDS011;20065;48.380;10.892;2023-05-18T16:44:01;6.63;;;3.30;;
33740;SDS011;20065;48.380;10.892;2023-05-18T16:46:47;6.87;;;3.53;;
33740;SDS011;20065;48.380;10.892;2023-05-18T16:49:36;8.90;;;2.90;;
33740;SDS011;20065;48.380;10.892;2023-05-18T16:52:22;8.37;;;3.67;;